<?xml version="1.0" encoding="utf-8"?>
<gpx xmlns:xsi="http://www.w3.org/2001/XMLSchema-instance" xmlns:xsd="http://www.w3.org/2001/XMLSchema" version="1.1" creator="Shapelink.com" xmlns="http://www.topografix.com/GPX/1/1" xmlns:gpxtpx="http://www.garmin.com/xmlschemas/TrackPointExtension/v1">
  <metadata>
    <name>Övrigt 1.64 km, 2020-07-24</name>
    <desc></desc>
    <author><name>Marian Moron</name></author> 
    <time>2020-07-24T20:17:14Z</time>
  </metadata>
  <trk>
    <name>Övrigt 1.64 km, 2020-07-24</name>
    <trkseg>
      <trkpt lat="51.229267219524" lon="4.458142005594">
        <ele>11.8</ele>
        <time>2020-07-24T20:17:14Z</time>
      </trkpt>
      <trkpt lat="51.229187172379" lon="4.458098838809">
        <ele>10.6</ele>
        <time>2020-07-24T20:17:25Z</time>
      </trkpt>
      <trkpt lat="51.22875039157" lon="4.458246192611">
        <ele>11.4</ele>
        <time>2020-07-24T20:17:56Z</time>
      </trkpt>
      <trkpt lat="51.228647461838" lon="4.458303608626">
        <ele>12.6</ele>
        <time>2020-07-24T20:18:08Z</time>
      </trkpt>
      <trkpt lat="51.22863639773" lon="4.458341159538">
        <ele>12.4</ele>
        <time>2020-07-24T20:18:10Z</time>
      </trkpt>
      <trkpt lat="51.228608905098" lon="4.458445430374">
        <ele>11.2</ele>
        <time>2020-07-24T20:18:15Z</time>
      </trkpt>
      <trkpt lat="51.228684593655" lon="4.458975250273">
        <ele>5.2</ele>
        <time>2020-07-24T20:18:58Z</time>
      </trkpt>
      <trkpt lat="51.228668835683" lon="4.459171386733">
        <ele>5.8</ele>
        <time>2020-07-24T20:19:14Z</time>
      </trkpt>
      <trkpt lat="51.228630698038" lon="4.459231904051">
        <ele>6.4</ele>
        <time>2020-07-24T20:19:20Z</time>
      </trkpt>
      <trkpt lat="51.228511088325" lon="4.459554607201">
        <ele>9</ele>
        <time>2020-07-24T20:19:48Z</time>
      </trkpt>
      <trkpt lat="51.228393574087" lon="4.460216777301">
        <ele>9.8</ele>
        <time>2020-07-24T20:20:45Z</time>
      </trkpt>
      <trkpt lat="51.228318304625" lon="4.460270589099">
        <ele>9.4</ele>
        <time>2020-07-24T20:20:55Z</time>
      </trkpt>
      <trkpt lat="51.228244627724" lon="4.460405872965">
        <ele>8.2</ele>
        <time>2020-07-24T20:21:24Z</time>
      </trkpt>
      <trkpt lat="51.228249237769" lon="4.460495810752">
        <ele>8</ele>
        <time>2020-07-24T20:21:30Z</time>
      </trkpt>
      <trkpt lat="51.22830698906" lon="4.460651127359">
        <ele>8.2</ele>
        <time>2020-07-24T20:21:53Z</time>
      </trkpt>
      <trkpt lat="51.228333475864" lon="4.460691695755">
        <ele>8.2</ele>
        <time>2020-07-24T20:21:56Z</time>
      </trkpt>
      <trkpt lat="51.228546627581" lon="4.460993192698">
        <ele>5.8</ele>
        <time>2020-07-24T20:22:28Z</time>
      </trkpt>
      <trkpt lat="51.228663806543" lon="4.460976596536">
        <ele>5.6</ele>
        <time>2020-07-24T20:22:38Z</time>
      </trkpt>
      <trkpt lat="51.228919957407" lon="4.461549750858">
        <ele>56.2</ele>
        <time>2020-07-24T20:23:30Z</time>
      </trkpt>
      <trkpt lat="51.229156997539" lon="4.461434918828">
        <ele>59.4</ele>
        <time>2020-07-24T20:23:55Z</time>
      </trkpt>
      <trkpt lat="51.22953074646" lon="4.460969220464">
        <ele>17</ele>
        <time>2020-07-24T20:24:27Z</time>
      </trkpt>
      <trkpt lat="51.22960953632" lon="4.461068713617">
        <ele>10.2</ele>
        <time>2020-07-24T20:24:38Z</time>
      </trkpt>
      <trkpt lat="51.229710789672" lon="4.461082124657">
        <ele>8.2</ele>
        <time>2020-07-24T20:24:48Z</time>
      </trkpt>
      <trkpt lat="51.229896867852" lon="4.461586547399">
        <ele>6.6</ele>
        <time>2020-07-24T20:25:31Z</time>
      </trkpt>
      <trkpt lat="51.229935759868" lon="4.461716131573">
        <ele>5.4</ele>
        <time>2020-07-24T20:25:42Z</time>
      </trkpt>
      <trkpt lat="51.230044305473" lon="4.462116870212">
        <ele>6.2</ele>
        <time>2020-07-24T20:26:15Z</time>
      </trkpt>
      <trkpt lat="51.230120496944" lon="4.462337314182">
        <ele>2</ele>
        <time>2020-07-24T20:26:38Z</time>
      </trkpt>
      <trkpt lat="51.230110690121" lon="4.462400848984">
        <ele>0.8</ele>
        <time>2020-07-24T20:26:42Z</time>
      </trkpt>
      <trkpt lat="51.230032235537" lon="4.462449715461">
        <ele>4.8</ele>
        <time>2020-07-24T20:27:06Z</time>
      </trkpt>
      <trkpt lat="51.230119658754" lon="4.462663202454">
        <ele>5.8</ele>
        <time>2020-07-24T20:27:22Z</time>
      </trkpt>
      <trkpt lat="51.2301560362" lon="4.462783650357">
        <ele>5.2</ele>
        <time>2020-07-24T20:27:31Z</time>
      </trkpt>
      <trkpt lat="51.230211859654" lon="4.462934692195">
        <ele>2.6</ele>
        <time>2020-07-24T20:28:11Z</time>
      </trkpt>
      <trkpt lat="51.230335325041" lon="4.46304072323">
        <ele>0.6</ele>
        <time>2020-07-24T20:28:31Z</time>
      </trkpt>
      <trkpt lat="51.230383688604" lon="4.463296538818">
        <ele>0.8</ele>
        <time>2020-07-24T20:28:58Z</time>
      </trkpt>
      <trkpt lat="51.230324847666" lon="4.463948734457">
        <ele>3.8</ele>
        <time>2020-07-24T20:29:46Z</time>
      </trkpt>
      <trkpt lat="51.229942800664" lon="4.464280070964">
        <ele>7.4</ele>
        <time>2020-07-24T20:30:57Z</time>
      </trkpt>
      <trkpt lat="51.229572991236" lon="4.464309239976">
        <ele>11</ele>
        <time>2020-07-24T20:31:40Z</time>
      </trkpt>
      <trkpt lat="51.229323378254" lon="4.464408565491">
        <ele>15</ele>
        <time>2020-07-24T20:32:10Z</time>
      </trkpt>
      <trkpt lat="51.228918616303" lon="4.464396327917">
        <ele>11</ele>
        <time>2020-07-24T20:33:06Z</time>
      </trkpt>
      <trkpt lat="51.22869590922" lon="4.464313430926">
        <ele>0</ele>
        <time>2020-07-24T20:33:53Z</time>
      </trkpt>
      <trkpt lat="51.228798503676" lon="4.464115701905">
        <ele>0</ele>
        <time>2020-07-24T20:34:50Z</time>
      </trkpt>
      <trkpt lat="51.22891802957" lon="4.464108828747">
        <ele>1</ele>
        <time>2020-07-24T20:35:12Z</time>
      </trkpt>
      <trkpt lat="51.228957508319" lon="4.464104134883">
        <ele>2</ele>
        <time>2020-07-24T20:35:16Z</time>
      </trkpt>
      <trkpt lat="51.229103856293" lon="4.464070355826">
        <ele>3</ele>
        <time>2020-07-24T20:35:34Z</time>
      </trkpt>
      <trkpt lat="51.229097234592" lon="4.463882014533">
        <ele>1.2</ele>
        <time>2020-07-24T20:36:33Z</time>
      </trkpt>
      <trkpt lat="51.229060773327" lon="4.463476079116">
        <ele>0.8</ele>
        <time>2020-07-24T20:37:01Z</time>
      </trkpt>
      <trkpt lat="51.229029425021" lon="4.463141641306">
        <ele>0.6</ele>
        <time>2020-07-24T20:37:21Z</time>
      </trkpt>
      <trkpt lat="51.229058677852" lon="4.463001412119">
        <ele>0.6</ele>
        <time>2020-07-24T20:37:31Z</time>
      </trkpt>
      <trkpt lat="51.229051720875" lon="4.462948689968">
        <ele>0</ele>
        <time>2020-07-24T20:37:34Z</time>
      </trkpt>
      <trkpt lat="51.229057839662" lon="4.462896638369">
        <ele>0</ele>
        <time>2020-07-24T20:37:37Z</time>
      </trkpt>
      <trkpt lat="51.229122967025" lon="4.462715589329">
        <ele>1.6</ele>
        <time>2020-07-24T20:37:57Z</time>
      </trkpt>
      <trkpt lat="51.229041830233" lon="4.462087617381">
        <ele>0</ele>
        <time>2020-07-24T20:39:29Z</time>
      </trkpt>
      <trkpt lat="51.228737315806" lon="4.46186474266">
        <ele>0</ele>
        <time>2020-07-24T20:40:39Z</time>
      </trkpt>
      <trkpt lat="51.22850228733" lon="4.461764327498">
        <ele>0</ele>
        <time>2020-07-24T20:41:21Z</time>
      </trkpt>
      <trkpt lat="51.228512848524" lon="4.461504069503">
        <ele>3.2</ele>
        <time>2020-07-24T20:41:34Z</time>
      </trkpt>
      <trkpt lat="51.228518296759" lon="4.461093440222">
        <ele>7.8</ele>
        <time>2020-07-24T20:42:02Z</time>
      </trkpt>
      <trkpt lat="51.228409834973" lon="4.460892945174">
        <ele>3.4</ele>
        <time>2020-07-24T20:42:19Z</time>
      </trkpt>
      <trkpt lat="51.228135830662" lon="4.46039120464">
        <ele>0</ele>
        <time>2020-07-24T20:43:16Z</time>
      </trkpt>
      <trkpt lat="51.22822400825" lon="4.46016992248">
        <ele>0</ele>
        <time>2020-07-24T20:43:43Z</time>
      </trkpt>
      <trkpt lat="51.228300954092" lon="4.460075542286">
        <ele>0</ele>
        <time>2020-07-24T20:43:57Z</time>
      </trkpt>
      <trkpt lat="51.228482925141" lon="4.459413539824">
        <ele>0</ele>
        <time>2020-07-24T20:44:46Z</time>
      </trkpt>
      <trkpt lat="51.228519805501" lon="4.459337851267">
        <ele>0</ele>
        <time>2020-07-24T20:44:53Z</time>
      </trkpt>
      <trkpt lat="51.228551991997" lon="4.458819682209">
        <ele>1.6</ele>
        <time>2020-07-24T20:45:26Z</time>
      </trkpt>
      <trkpt lat="51.228641845965" lon="4.458304446816">
        <ele>1.6</ele>
        <time>2020-07-24T20:46:07Z</time>
      </trkpt>
      <trkpt lat="51.229064796639" lon="4.458025664822">
        <ele>0</ele>
        <time>2020-07-24T20:47:00Z</time>
      </trkpt>
      <trkpt lat="51.22951649723" lon="4.457949976265">
        <ele>0</ele>
        <time>2020-07-24T20:47:48Z</time>
      </trkpt>
      <trkpt lat="51.229700312297" lon="4.457884010712">
        <ele>0</ele>
        <time>2020-07-24T20:48:22Z</time>
      </trkpt>
    </trkseg>
  </trk>
</gpx>